sensor_id;sensor_type;location;lat;lon;timestamp;pressure;altitude;pressure_sealevel;temperature;humidity
70921;BME280;58572;48.110;19.838;2023-05-09T00:00:30;98598.41;;;8.20;58.58
70921;BME280;58572;48.110;19.838;2023-05-09T00:02:57;98595.88;;;7.42;61.13
70921;BME280;58572;48.110;19.838;2023-05-09T00:05:24;98595.06;;;7.58;60.75
70921;BME280;58572;48.110;19.838;2023-05-09T00:07:51;98597.47;;;7.26;62.01
70921;BME280;58572;48.110;19.838;2023-05-09T00:10:19;98593.50;;;8.56;57.29
70921;BME280;58572;48.110;19.838;2023-05-09T00:12:46;98597.69;;;7.36;61.08
70921;BME280;58572;48.110;19.838;2023-05-09T00:15:15;98588.31;;;8.16;59.16
70921;BME280;58572;48.110;19.838;2023-05-09T00:17:42;98552.59;;;7.97;59.18
70921;BME280;58572;48.110;19.838;2023-05-09T00:20:10;98579.31;;;8.49;57.60
70921;BME280;58572;48.110;19.838;2023-05-09T00:22:38;98572.72;;;8.40;57.36
70921;BME280;58572;48.110;19.838;2023-05-09T00:25:07;98581.22;;;8.31;57.55
70921;BME280;58572;48.110;19.838;2023-05-09T00:27:34;98574.97;;;8.09;58.27
70921;BME280;58572;48.110;19.838;2023-05-09T00:30:02;98577.63;;;7.87;58.91
70921;BME280;58572;48.110;19.838;2023-05-09T00:32:31;98443.91;;;6.61;61.24
70921;BME280;58572;48.110;19.838;2023-05-09T00:34:58;98571.47;;;8.74;56.05
70921;BME280;58572;48.110;19.838;2023-05-09T00:37:25;98570.31;;;8.26;57.24
70921;BME280;58572;48.110;19.838;2023-05-09T00:39:52;98575.41;;;8.23;58.34
70921;BME280;58572;48.110;19.838;2023-05-09T00:42:19;98575.34;;;8.18;58.49
70921;BME280;58572;48.110;19.838;2023-05-09T00:44:47;98570.75;;;8.18;58.52
70921;BME280;58572;48.110;19.838;2023-05-09T00:47:14;98569.50;;;8.43;57.17
70921;BME280;58572;48.110;19.838;2023-05-09T00:49:42;98577.47;;;7.94;58.80
70921;BME280;58572;48.110;19.838;2023-05-09T00:52:10;98569.81;;;7.52;60.92
70921;BME280;58572;48.110;19.838;2023-05-09T00:54:37;98569.19;;;8.22;57.75
70921;BME280;58572;48.110;19.838;2023-05-09T00:57:04;98567.94;;;7.91;58.63
70921;BME280;58572;48.110;19.838;2023-05-09T00:59:31;98564.50;;;7.96;59.59
70921;BME280;58572;48.110;19.838;2023-05-09T01:01:58;98568.72;;;6.75;63.72
70921;BME280;58572;48.110;19.838;2023-05-09T01:04:26;98568.63;;;7.15;61.72
70921;BME280;58572;48.110;19.838;2023-05-09T01:07:02;98566.41;;;7.79;58.76
70921;BME280;58572;48.110;19.838;2023-05-09T01:09:35;98569.00;;;7.35;61.68
70921;BME280;58572;48.110;19.838;2023-05-09T01:12:10;98565.47;;;7.34;61.55
70921;BME280;58572;48.110;19.838;2023-05-09T01:14:44;98563.22;;;7.15;61.97
70921;BME280;58572;48.110;19.838;2023-05-09T01:17:18;98562.03;;;7.39;60.94
70921;BME280;58572;48.110;19.838;2023-05-09T01:19:56;98567.97;;;7.75;59.07
70921;BME280;58572;48.110;19.838;2023-05-09T01:22:29;98563.53;;;7.01;61.48
70921;BME280;58572;48.110;19.838;2023-05-09T01:25:26;98564.72;;;6.49;64.29
70921;BME280;58572;48.110;19.838;2023-05-09T01:28:04;98558.09;;;6.85;63.28
70921;BME280;58572;48.110;19.838;2023-05-09T01:30:36;98367.22;;;5.60;62.58
70921;BME280;58572;48.110;19.838;2023-05-09T01:33:05;98451.31;;;6.99;60.21
70921;BME280;58572;48.110;19.838;2023-05-09T01:35:36;98560.41;;;6.93;63.54
70921;BME280;58572;48.110;19.838;2023-05-09T01:38:08;98550.72;;;6.52;65.11
70921;BME280;58572;48.110;19.838;2023-05-09T01:40:37;98552.81;;;7.07;61.71
70921;BME280;58572;48.110;19.838;2023-05-09T01:43:08;98541.44;;;6.07;66.40
70921;BME280;58572;48.110;19.838;2023-05-09T01:45:38;98535.47;;;7.91;58.26
70921;BME280;58572;48.110;19.838;2023-05-09T01:48:08;98539.94;;;6.97;63.44
70921;BME280;58572;48.110;19.838;2023-05-09T01:50:37;98545.72;;;6.72;64.71
70921;BME280;58572;48.110;19.838;2023-05-09T01:53:05;98534.69;;;7.74;59.03
70921;BME280;58572;48.110;19.838;2023-05-09T01:55:34;98537.13;;;6.75;63.65
70921;BME280;58572;48.110;19.838;2023-05-09T01:58:03;98545.66;;;7.00;62.42
70921;BME280;58572;48.110;19.838;2023-05-09T02:00:31;98408.13;;;6.37;61.72
70921;BME280;58572;48.110;19.838;2023-05-09T02:03:01;98506.63;;;6.63;64.16
70921;BME280;58572;48.110;19.838;2023-05-09T02:05:30;98537.16;;;7.59;59.64
70921;BME280;58572;48.110;19.838;2023-05-09T02:07:58;98536.69;;;7.45;60.59
70921;BME280;58572;48.110;19.838;2023-05-09T02:10:25;98537.91;;;7.54;59.92
70921;BME280;58572;48.110;19.838;2023-05-09T02:12:53;98529.53;;;7.73;58.62
70921;BME280;58572;48.110;19.838;2023-05-09T02:15:20;98535.34;;;7.64;61.01
70921;BME280;58572;48.110;19.838;2023-05-09T02:17:48;98538.81;;;7.60;59.88
70921;BME280;58572;48.110;19.838;2023-05-09T02:20:16;98541.00;;;7.13;61.69
70921;BME280;58572;48.110;19.838;2023-05-09T02:22:44;98541.03;;;7.46;61.35
70921;BME280;58572;48.110;19.838;2023-05-09T02:25:11;98510.38;;;5.82;66.45
70921;BME280;58572;48.110;19.838;2023-05-09T02:27:42;98541.25;;;7.28;61.14
70921;BME280;58572;48.110;19.838;2023-05-09T02:30:14;98548.84;;;6.52;63.96
70921;BME280;58572;48.110;19.838;2023-05-09T02:32:44;98491.34;;;6.40;62.77
70921;BME280;58572;48.110;19.838;2023-05-09T02:35:15;98538.56;;;6.66;63.30
70921;BME280;58572;48.110;19.838;2023-05-09T02:37:44;98518.59;;;6.67;62.91
70921;BME280;58572;48.110;19.838;2023-05-09T02:40:12;98536.13;;;7.43;60.04
70921;BME280;58572;48.110;19.838;2023-05-09T02:42:39;98540.06;;;7.91;58.58
70921;BME280;58572;48.110;19.838;2023-05-09T02:45:07;98538.78;;;7.10;60.85
70921;BME280;58572;48.110;19.838;2023-05-09T02:47:35;98542.13;;;7.28;60.43
70921;BME280;58572;48.110;19.838;2023-05-09T02:50:03;98434.59;;;6.68;59.32
70921;BME280;58572;48.110;19.838;2023-05-09T02:52:32;98527.41;;;7.08;60.25
70921;BME280;58572;48.110;19.838;2023-05-09T02:54:59;98519.03;;;7.98;57.61
70921;BME280;58572;48.110;19.838;2023-05-09T02:57:26;98528.41;;;7.90;57.61
70921;BME280;58572;48.110;19.838;2023-05-09T02:59:54;98521.25;;;8.23;57.57
70921;BME280;58572;48.110;19.838;2023-05-09T03:02:21;98449.38;;;8.15;56.71
70921;BME280;58572;48.110;19.838;2023-05-09T03:04:48;98527.72;;;7.78;59.32
70921;BME280;58572;48.110;19.838;2023-05-09T03:07:15;98518.28;;;7.81;58.11
70921;BME280;58572;48.110;19.838;2023-05-09T03:09:44;98527.72;;;7.78;58.65
70921;BME280;58572;48.110;19.838;2023-05-09T03:12:11;98522.88;;;8.24;56.70
70921;BME280;58572;48.110;19.838;2023-05-09T03:14:38;98502.16;;;7.52;58.80
70921;BME280;58572;48.110;19.838;2023-05-09T03:17:05;98525.97;;;7.89;58.08
70921;BME280;58572;48.110;19.838;2023-05-09T03:19:32;98469.00;;;6.73;61.91
70921;BME280;58572;48.110;19.838;2023-05-09T03:21:59;98531.72;;;7.76;58.64
70921;BME280;58572;48.110;19.838;2023-05-09T03:24:26;98528.63;;;8.27;56.75
70921;BME280;58572;48.110;19.838;2023-05-09T03:26:55;98521.50;;;7.61;59.05
70921;BME280;58572;48.110;19.838;2023-05-09T03:29:22;98529.22;;;7.91;58.41
70921;BME280;58572;48.110;19.838;2023-05-09T03:31:50;98532.09;;;7.46;58.89
70921;BME280;58572;48.110;19.838;2023-05-09T03:34:17;98538.63;;;7.16;60.73
70921;BME280;58572;48.110;19.838;2023-05-09T03:36:44;98430.00;;;7.02;60.49
70921;BME280;58572;48.110;19.838;2023-05-09T03:39:11;98524.44;;;7.98;58.06
70921;BME280;58572;48.110;19.838;2023-05-09T03:41:38;98531.59;;;7.65;58.90
70921;BME280;58572;48.110;19.838;2023-05-09T03:44:08;98532.47;;;6.87;61.99
70921;BME280;58572;48.110;19.838;2023-05-09T03:46:35;98508.47;;;7.08;60.44
70921;BME280;58572;48.110;19.838;2023-05-09T03:49:02;98545.03;;;7.60;58.94
70921;BME280;58572;48.110;19.838;2023-05-09T03:51:29;98536.94;;;7.60;59.18
70921;BME280;58572;48.110;19.838;2023-05-09T03:53:57;98450.47;;;7.32;58.38
70921;BME280;58572;48.110;19.838;2023-05-09T03:56:24;98538.56;;;8.00;59.10
70921;BME280;58572;48.110;19.838;2023-05-09T03:58:51;98539.28;;;7.74;60.02
70921;BME280;58572;48.110;19.838;2023-05-09T04:01:20;98536.19;;;8.25;57.90
70921;BME280;58572;48.110;19.838;2023-05-09T04:03:47;98542.41;;;8.04;57.62
70921;BME280;58572;48.110;19.838;2023-05-09T04:06:14;98544.16;;;7.93;57.64
70921;BME280;58572;48.110;19.838;2023-05-09T04:08:41;98546.03;;;7.54;60.15
70921;BME280;58572;48.110;19.838;2023-05-09T04:11:09;98542.84;;;8.35;58.15
70921;BME280;58572;48.110;19.838;2023-05-09T04:13:36;98470.28;;;6.54;61.71
70921;BME280;58572;48.110;19.838;2023-05-09T04:16:03;98542.59;;;8.19;58.32
70921;BME280;58572;48.110;19.838;2023-05-09T04:18:32;98541.69;;;7.92;58.99
70921;BME280;58572;48.110;19.838;2023-05-09T04:20:59;98540.63;;;7.54;59.71
70921;BME280;58572;48.110;19.838;2023-05-09T04:23:26;98406.91;;;6.45;60.28
70921;BME280;58572;48.110;19.838;2023-05-09T04:25:53;98553.25;;;8.26;57.34
70921;BME280;58572;48.110;19.838;2023-05-09T04:28:21;98544.97;;;8.32;57.33
70921;BME280;58572;48.110;19.838;2023-05-09T04:30:48;98546.50;;;8.28;58.85
70921;BME280;58572;48.110;19.838;2023-05-09T04:33:15;98551.59;;;8.25;59.57
70921;BME280;58572;48.110;19.838;2023-05-09T04:35:44;98555.72;;;7.50;60.67
70921;BME280;58572;48.110;19.838;2023-05-09T04:38:11;98382.63;;;7.33;58.06
70921;BME280;58572;48.110;19.838;2023-05-09T04:40:38;98421.00;;;7.96;55.83
70921;BME280;58572;48.110;19.838;2023-05-09T04:43:05;98567.16;;;8.51;56.49
70921;BME280;58572;48.110;19.838;2023-05-09T04:45:32;98556.22;;;8.24;58.88
70921;BME280;58572;48.110;19.838;2023-05-09T04:48:00;98559.66;;;7.98;59.40
70921;BME280;58572;48.110;19.838;2023-05-09T04:50:27;98552.91;;;8.00;62.22
70921;BME280;58572;48.110;19.838;2023-05-09T04:52:58;98556.03;;;8.31;58.06
70921;BME280;58572;48.110;19.838;2023-05-09T04:55:25;98545.09;;;8.64;57.58
70921;BME280;58572;48.110;19.838;2023-05-09T04:57:52;98542.53;;;8.53;58.02
70921;BME280;58572;48.110;19.838;2023-05-09T05:00:19;98548.66;;;8.26;58.84
70921;BME280;58572;48.110;19.838;2023-05-09T05:02:47;98541.81;;;8.89;56.95
70921;BME280;58572;48.110;19.838;2023-05-09T05:05:14;98515.91;;;8.06;60.12
70921;BME280;58572;48.110;19.838;2023-05-09T05:07:41;98555.06;;;8.20;59.54
70921;BME280;58572;48.110;19.838;2023-05-09T05:10:11;98536.22;;;8.30;58.89
70921;BME280;58572;48.110;19.838;2023-05-09T05:12:39;98522.06;;;8.23;57.61
70921;BME280;58572;48.110;19.838;2023-05-09T05:15:07;98550.00;;;8.94;57.54
70921;BME280;58572;48.110;19.838;2023-05-09T05:17:33;98552.63;;;8.36;59.15
70921;BME280;58572;48.110;19.838;2023-05-09T05:20:00;98561.69;;;8.08;59.18
70921;BME280;58572;48.110;19.838;2023-05-09T05:22:30;98551.09;;;8.45;57.99
70921;BME280;58572;48.110;19.838;2023-05-09T05:24:57;98514.19;;;8.39;57.07
70921;BME280;58572;48.110;19.838;2023-05-09T05:27:27;98563.31;;;8.47;59.22
70921;BME280;58572;48.110;19.838;2023-05-09T05:29:54;98560.06;;;8.72;57.55
70921;BME280;58572;48.110;19.838;2023-05-09T05:32:21;98557.47;;;8.82;57.66
70921;BME280;58572;48.110;19.838;2023-05-09T05:34:48;98562.78;;;8.72;57.70
70921;BME280;58572;48.110;19.838;2023-05-09T05:37:15;98566.97;;;8.58;57.71
70921;BME280;58572;48.110;19.838;2023-05-09T05:39:42;98567.28;;;8.88;57.01
70921;BME280;58572;48.110;19.838;2023-05-09T05:42:09;98551.72;;;9.06;56.26
70921;BME280;58572;48.110;19.838;2023-05-09T05:44:38;98547.19;;;9.43;55.00
70921;BME280;58572;48.110;19.838;2023-05-09T05:47:05;98548.66;;;9.56;56.29
70921;BME280;58572;48.110;19.838;2023-05-09T05:49:32;98551.44;;;9.66;54.79
70921;BME280;58572;48.110;19.838;2023-05-09T05:51:59;98551.03;;;9.47;55.39
70921;BME280;58572;48.110;19.838;2023-05-09T05:54:26;98507.34;;;9.96;54.10
70921;BME280;58572;48.110;19.838;2023-05-09T05:56:54;98568.16;;;8.67;57.96
70921;BME280;58572;48.110;19.838;2023-05-09T05:59:21;98562.75;;;8.94;57.75
70921;BME280;58572;48.110;19.838;2023-05-09T06:01:49;98556.03;;;8.75;59.93
70921;BME280;58572;48.110;19.838;2023-05-09T06:04:16;98559.78;;;8.30;60.94
70921;BME280;58572;48.110;19.838;2023-05-09T06:06:44;98502.41;;;8.11;59.98
70921;BME280;58572;48.110;19.838;2023-05-09T06:09:12;98500.63;;;8.39;58.22
70921;BME280;58572;48.110;19.838;2023-05-09T06:11:39;98556.91;;;8.80;58.54
70921;BME280;58572;48.110;19.838;2023-05-09T06:14:06;98550.00;;;8.94;57.72
70921;BME280;58572;48.110;19.838;2023-05-09T06:16:33;98500.53;;;8.82;57.27
70921;BME280;58572;48.110;19.838;2023-05-09T06:19:02;98556.66;;;9.09;58.77
70921;BME280;58572;48.110;19.838;2023-05-09T06:21:29;98318.44;;;7.99;57.60
70921;BME280;58572;48.110;19.838;2023-05-09T06:23:58;98554.72;;;9.36;57.93
70921;BME280;58572;48.110;19.838;2023-05-09T06:26:27;98554.56;;;9.48;57.11
70921;BME280;58572;48.110;19.838;2023-05-09T06:28:54;98558.31;;;9.79;56.48
70921;BME280;58572;48.110;19.838;2023-05-09T06:31:21;98548.94;;;9.59;57.18
70921;BME280;58572;48.110;19.838;2023-05-09T06:33:49;98547.28;;;9.53;57.26
70921;BME280;58572;48.110;19.838;2023-05-09T06:36:17;98555.56;;;9.37;57.27
70921;BME280;58572;48.110;19.838;2023-05-09T06:38:45;98551.72;;;9.70;56.65
70921;BME280;58572;48.110;19.838;2023-05-09T06:41:13;98552.69;;;9.53;58.14
70921;BME280;58572;48.110;19.838;2023-05-09T06:43:40;98551.88;;;9.90;57.13
70921;BME280;58572;48.110;19.838;2023-05-09T06:46:07;98550.63;;;10.13;56.55
70921;BME280;58572;48.110;19.838;2023-05-09T06:48:34;98334.78;;;9.06;55.82
70921;BME280;58572;48.110;19.838;2023-05-09T06:51:02;98550.03;;;10.48;56.20
70921;BME280;58572;48.110;19.838;2023-05-09T06:53:30;98413.25;;;9.65;55.27
70921;BME280;58572;48.110;19.838;2023-05-09T06:55:58;98523.53;;;10.23;55.76
70921;BME280;58572;48.110;19.838;2023-05-09T06:58:25;98554.44;;;10.69;55.29
70921;BME280;58572;48.110;19.838;2023-05-09T07:00:52;98551.47;;;10.71;55.44
70921;BME280;58572;48.110;19.838;2023-05-09T07:03:20;98567.00;;;10.80;54.93
70921;BME280;58572;48.110;19.838;2023-05-09T07:05:47;98555.91;;;10.30;55.65
70921;BME280;58572;48.110;19.838;2023-05-09T07:08:16;98556.66;;;10.87;54.88
70921;BME280;58572;48.110;19.838;2023-05-09T07:10:44;98555.03;;;10.86;55.02
70921;BME280;58572;48.110;19.838;2023-05-09T07:13:11;98549.91;;;11.20;54.66
70921;BME280;58572;48.110;19.838;2023-05-09T07:15:39;98480.22;;;10.84;53.81
70921;BME280;58572;48.110;19.838;2023-05-09T07:18:06;98540.66;;;11.72;53.22
70921;BME280;58572;48.110;19.838;2023-05-09T07:20:33;98539.59;;;11.89;53.15
70921;BME280;58572;48.110;19.838;2023-05-09T07:23:01;98537.41;;;11.70;53.55
70921;BME280;58572;48.110;19.838;2023-05-09T07:25:29;98531.03;;;12.21;53.33
70921;BME280;58572;48.110;19.838;2023-05-09T07:27:57;98521.78;;;12.81;52.10
70921;BME280;58572;48.110;19.838;2023-05-09T07:30:25;98522.81;;;12.90;51.05
70921;BME280;58572;48.110;19.838;2023-05-09T07:32:52;98523.72;;;13.20;49.45
70921;BME280;58572;48.110;19.838;2023-05-09T07:35:19;98520.06;;;13.34;49.00
70921;BME280;58572;48.110;19.838;2023-05-09T07:37:46;98520.63;;;12.92;50.65
70921;BME280;58572;48.110;19.838;2023-05-09T07:40:14;98499.91;;;13.88;48.49
70921;BME280;58572;48.110;19.838;2023-05-09T07:42:41;98494.91;;;14.19;47.84
70921;BME280;58572;48.110;19.838;2023-05-09T07:45:15;98457.25;;;13.34;49.33
70921;BME280;58572;48.110;19.838;2023-05-09T07:47:42;98500.72;;;13.89;49.24
70921;BME280;58572;48.110;19.838;2023-05-09T07:50:10;98469.44;;;13.76;50.52
70921;BME280;58572;48.110;19.838;2023-05-09T07:52:37;98486.59;;;14.72;47.25
70921;BME280;58572;48.110;19.838;2023-05-09T07:55:05;98489.63;;;14.71;48.42
70921;BME280;58572;48.110;19.838;2023-05-09T07:57:32;98472.81;;;15.66;44.32
70921;BME280;58572;48.110;19.838;2023-05-09T08:00:00;98485.22;;;16.05;44.47
70921;BME280;58572;48.110;19.838;2023-05-09T08:02:28;98477.50;;;14.34;48.90
70921;BME280;58572;48.110;19.838;2023-05-09T08:04:55;98472.50;;;15.16;46.04
70921;BME280;58572;48.110;19.838;2023-05-09T08:07:22;98476.88;;;15.17;46.05
70921;BME280;58572;48.110;19.838;2023-05-09T08:09:49;98388.94;;;15.19;45.76
70921;BME280;58572;48.110;19.838;2023-05-09T08:12:17;98472.81;;;15.66;42.33
70921;BME280;58572;48.110;19.838;2023-05-09T08:14:44;98469.44;;;16.51;44.75
70921;BME280;58572;48.110;19.838;2023-05-09T08:17:11;98467.50;;;16.52;43.46
70921;BME280;58572;48.110;19.838;2023-05-09T08:19:39;98495.00;;;16.11;45.02
70921;BME280;58572;48.110;19.838;2023-05-09T08:22:07;98468.06;;;15.53;43.04
70921;BME280;58572;48.110;19.838;2023-05-09T08:24:34;98471.19;;;15.46;44.44
70921;BME280;58572;48.110;19.838;2023-05-09T08:27:01;98469.66;;;15.40;44.90
70921;BME280;58572;48.110;19.838;2023-05-09T08:29:29;98461.31;;;16.46;43.37
70921;BME280;58572;48.110;19.838;2023-05-09T08:31:57;98466.03;;;16.18;44.08
70921;BME280;58572;48.110;19.838;2023-05-09T08:34:24;98466.78;;;16.60;42.69
70921;BME280;58572;48.110;19.838;2023-05-09T08:36:53;98473.03;;;16.11;42.61
70921;BME280;58572;48.110;19.838;2023-05-09T08:39:20;98472.94;;;15.88;43.19
70921;BME280;58572;48.110;19.838;2023-05-09T08:41:47;98471.59;;;15.53;43.86
70921;BME280;58572;48.110;19.838;2023-05-09T08:44:15;98466.59;;;15.42;44.20
70921;BME280;58572;48.110;19.838;2023-05-09T08:46:43;98375.75;;;15.94;43.14
70921;BME280;58572;48.110;19.838;2023-05-09T08:49:11;98465.69;;;16.47;41.95
70921;BME280;58572;48.110;19.838;2023-05-09T08:51:38;98464.69;;;16.43;42.56
70921;BME280;58572;48.110;19.838;2023-05-09T08:54:07;98456.06;;;16.36;42.22
70921;BME280;58572;48.110;19.838;2023-05-09T08:56:34;98472.00;;;16.75;42.24
70921;BME280;58572;48.110;19.838;2023-05-09T08:59:03;98466.31;;;16.72;41.89
70921;BME280;58572;48.110;19.838;2023-05-09T09:01:32;98451.44;;;17.62;41.57
70921;BME280;58572;48.110;19.838;2023-05-09T09:03:59;98460.66;;;15.86;41.86
70921;BME280;58572;48.110;19.838;2023-05-09T09:06:27;98462.06;;;16.11;42.34
70921;BME280;58572;48.110;19.838;2023-05-09T09:08:54;98407.28;;;17.59;39.89
70921;BME280;58572;48.110;19.838;2023-05-09T09:11:25;98441.25;;;16.87;41.48
70921;BME280;58572;48.110;19.838;2023-05-09T09:13:53;98443.19;;;17.84;40.37
70921;BME280;58572;48.110;19.838;2023-05-09T09:16:21;98445.47;;;17.38;40.89
70921;BME280;58572;48.110;19.838;2023-05-09T09:18:51;98437.00;;;17.26;41.26
70921;BME280;58572;48.110;19.838;2023-05-09T09:21:20;98401.06;;;17.44;41.05
70921;BME280;58572;48.110;19.838;2023-05-09T09:23:48;98437.81;;;17.71;40.44
70921;BME280;58572;48.110;19.838;2023-05-09T09:26:16;98448.78;;;16.81;41.74
70921;BME280;58572;48.110;19.838;2023-05-09T09:28:44;98451.13;;;16.60;41.90
70921;BME280;58572;48.110;19.838;2023-05-09T09:31:19;98419.22;;;15.87;42.75
70921;BME280;58572;48.110;19.838;2023-05-09T09:33:47;98396.06;;;17.69;40.24
70921;BME280;58572;48.110;19.838;2023-05-09T09:36:14;98433.94;;;18.20;39.13
70921;BME280;58572;48.110;19.838;2023-05-09T09:38:41;98426.53;;;18.46;39.35
70921;BME280;58572;48.110;19.838;2023-05-09T09:41:09;98427.56;;;19.20;38.54
70921;BME280;58572;48.110;19.838;2023-05-09T09:43:38;98426.78;;;18.93;38.68
70921;BME280;58572;48.110;19.838;2023-05-09T09:46:06;98442.34;;;16.36;40.50
70921;BME280;58572;48.110;19.838;2023-05-09T09:48:34;98423.72;;;18.86;38.82
70921;BME280;58572;48.110;19.838;2023-05-09T09:51:07;98401.09;;;19.53;37.44
70921;BME280;58572;48.110;19.838;2023-05-09T09:53:38;98288.88;;;18.46;38.61
70921;BME280;58572;48.110;19.838;2023-05-09T09:56:06;98439.19;;;18.47;38.34
70921;BME280;58572;48.110;19.838;2023-05-09T09:58:33;98427.41;;;17.68;38.46
70921;BME280;58572;48.110;19.838;2023-05-09T10:01:06;98436.63;;;19.29;37.41
70921;BME280;58572;48.110;19.838;2023-05-09T10:03:37;98201.97;;;16.57;36.70
70921;BME280;58572;48.110;19.838;2023-05-09T10:06:07;98368.91;;;18.93;36.77
70921;BME280;58572;48.110;19.838;2023-05-09T10:08:35;98419.88;;;19.51;36.91
70921;BME280;58572;48.110;19.838;2023-05-09T10:11:02;98406.06;;;20.65;34.71
70921;BME280;58572;48.110;19.838;2023-05-09T10:13:29;98413.41;;;20.61;35.61
70921;BME280;58572;48.110;19.838;2023-05-09T10:15:57;98421.41;;;18.71;36.55
70921;BME280;58572;48.110;19.838;2023-05-09T10:18:27;98421.75;;;18.78;37.47
70921;BME280;58572;48.110;19.838;2023-05-09T10:20:56;98382.25;;;19.55;36.51
70921;BME280;58572;48.110;19.838;2023-05-09T10:23:26;98406.19;;;19.17;34.73
70921;BME280;58572;48.110;19.838;2023-05-09T10:26:02;98407.47;;;20.51;33.95
70921;BME280;58572;48.110;19.838;2023-05-09T10:28:34;98302.13;;;19.05;33.95
70921;BME280;58572;48.110;19.838;2023-05-09T10:31:11;98415.28;;;18.91;36.58
70921;BME280;58572;48.110;19.838;2023-05-09T10:33:45;98409.22;;;18.55;37.30
70921;BME280;58572;48.110;19.838;2023-05-09T10:36:16;98406.19;;;18.65;37.21
70921;BME280;58572;48.110;19.838;2023-05-09T10:38:43;98404.47;;;20.05;36.58
70921;BME280;58572;48.110;19.838;2023-05-09T10:41:10;98404.59;;;18.81;37.71
70921;BME280;58572;48.110;19.838;2023-05-09T10:43:38;98238.00;;;17.18;38.72
70921;BME280;58572;48.110;19.838;2023-05-09T10:46:05;98410.16;;;18.24;38.81
70921;BME280;58572;48.110;19.838;2023-05-09T10:48:33;98415.00;;;17.26;40.41
70921;BME280;58572;48.110;19.838;2023-05-09T10:51:02;98401.28;;;18.44;38.84
70921;BME280;58572;48.110;19.838;2023-05-09T10:53:40;98410.59;;;16.71;41.44
70921;BME280;58572;48.110;19.838;2023-05-09T10:56:08;98412.72;;;17.72;39.25
70921;BME280;58572;48.110;19.838;2023-05-09T10:58:35;98411.47;;;17.78;40.88
70921;BME280;58572;48.110;19.838;2023-05-09T11:01:05;98404.78;;;16.73;41.83
70921;BME280;58572;48.110;19.838;2023-05-09T11:03:54;98402.16;;;18.05;39.71
70921;BME280;58572;48.110;19.838;2023-05-09T11:06:48;98396.63;;;17.97;39.93
70921;BME280;58572;48.110;19.838;2023-05-09T11:09:26;98363.06;;;17.15;40.87
70921;BME280;58572;48.110;19.838;2023-05-09T11:11:55;98381.34;;;17.73;39.54
70921;BME280;58572;48.110;19.838;2023-05-09T11:14:30;98390.53;;;18.17;39.85
70921;BME280;58572;48.110;19.838;2023-05-09T11:17:00;98391.81;;;18.11;39.41
70921;BME280;58572;48.110;19.838;2023-05-09T11:19:36;98373.31;;;19.58;37.14
70921;BME280;58572;48.110;19.838;2023-05-09T11:22:18;98355.81;;;18.73;38.20
70921;BME280;58572;48.110;19.838;2023-05-09T11:24:46;98379.16;;;17.93;39.02
70921;BME280;58572;48.110;19.838;2023-05-09T11:27:15;98370.66;;;17.72;39.72
70921;BME280;58572;48.110;19.838;2023-05-09T11:29:43;98378.13;;;17.71;40.24
70921;BME280;58572;48.110;19.838;2023-05-09T11:32:12;98386.84;;;17.73;39.13
70921;BME280;58572;48.110;19.838;2023-05-09T11:34:42;98378.97;;;17.58;40.20
70921;BME280;58572;48.110;19.838;2023-05-09T11:37:10;98325.19;;;17.35;39.65
70921;BME280;58572;48.110;19.838;2023-05-09T11:39:57;98383.50;;;17.63;40.79
70921;BME280;58572;48.110;19.838;2023-05-09T11:42:26;98373.84;;;18.05;39.44
70921;BME280;58572;48.110;19.838;2023-05-09T11:44:55;98376.34;;;18.49;38.80
70921;BME280;58572;48.110;19.838;2023-05-09T11:47:22;98372.72;;;17.66;39.55
70921;BME280;58572;48.110;19.838;2023-05-09T11:49:50;98363.88;;;18.52;38.95
70921;BME280;58572;48.110;19.838;2023-05-09T11:52:18;98362.69;;;18.10;37.60
70921;BME280;58572;48.110;19.838;2023-05-09T11:54:46;98363.69;;;18.48;38.28
70921;BME280;58572;48.110;19.838;2023-05-09T11:57:15;98365.97;;;18.46;38.59
70921;BME280;58572;48.110;19.838;2023-05-09T11:59:43;98353.06;;;18.73;37.43
70921;BME280;58572;48.110;19.838;2023-05-09T12:02:10;98357.94;;;17.93;38.56
70921;BME280;58572;48.110;19.838;2023-05-09T12:04:38;98351.41;;;19.06;36.61
70921;BME280;58572;48.110;19.838;2023-05-09T12:07:05;98342.34;;;19.53;37.00
70921;BME280;58572;48.110;19.838;2023-05-09T12:09:34;98272.97;;;19.71;35.77
70921;BME280;58572;48.110;19.838;2023-05-09T12:12:08;98325.59;;;19.20;35.28
70921;BME280;58572;48.110;19.838;2023-05-09T12:14:37;98347.16;;;19.18;36.05
70921;BME280;58572;48.110;19.838;2023-05-09T12:17:05;98349.03;;;19.43;35.70
70921;BME280;58572;48.110;19.838;2023-05-09T12:19:33;98344.03;;;19.74;35.42
70921;BME280;58572;48.110;19.838;2023-05-09T12:22:02;98217.38;;;19.61;34.04
70921;BME280;58572;48.110;19.838;2023-05-09T12:24:34;98343.50;;;19.43;35.12
70921;BME280;58572;48.110;19.838;2023-05-09T12:27:02;98327.19;;;20.26;33.07
70921;BME280;58572;48.110;19.838;2023-05-09T12:29:32;98334.47;;;19.72;33.83
70921;BME280;58572;48.110;19.838;2023-05-09T12:32:01;98330.34;;;18.41;34.27
70921;BME280;58572;48.110;19.838;2023-05-09T12:34:29;98335.34;;;19.08;35.19
70921;BME280;58572;48.110;19.838;2023-05-09T12:36:56;98282.78;;;17.67;36.09
70921;BME280;58572;48.110;19.838;2023-05-09T12:39:24;98334.78;;;17.85;36.28
70921;BME280;58572;48.110;19.838;2023-05-09T12:41:52;98331.91;;;17.91;37.07
70921;BME280;58572;48.110;19.838;2023-05-09T12:44:19;98324.00;;;18.24;35.93
70921;BME280;58572;48.110;19.838;2023-05-09T12:46:55;98296.66;;;18.10;35.70
70921;BME280;58572;48.110;19.838;2023-05-09T12:49:24;98322.88;;;18.50;35.91
70921;BME280;58572;48.110;19.838;2023-05-09T12:51:52;98326.47;;;18.94;36.09
70921;BME280;58572;48.110;19.838;2023-05-09T12:54:20;98322.25;;;18.36;34.44
70921;BME280;58572;48.110;19.838;2023-05-09T12:56:48;98320.00;;;18.73;36.20
70921;BME280;58572;48.110;19.838;2023-05-09T12:59:20;98319.22;;;19.74;34.27
70921;BME280;58572;48.110;19.838;2023-05-09T13:01:51;98314.78;;;18.97;35.79